PWSweather.com
Personal Weather Stations
Station Observations
2450ARBOR
Round Rock, TX 78681

Round Rock, TX 78681

Lat: 30.535239, Lon: -97.728137

Elevation: 800

Station Type:

High Low Average
Temperature 49.8°F9.9°C 32.2°F0.1°C 39.2°F4.0°C
Dew Point 41.0°F5.0°C 31.0°F-0.6°C 36.7°F2.6°C
Winds 4.0 mph 6.4 kmh Calm Calm 1.0 mph SSW1.6 kmh SSW
Wind Gusts 7.0 mph11.3 kmh -- 2.0 mph3.2 kmh
Humidity 99% 68% 91%
Pressure 30.12 in1020.0 mb 29.98 in1015.2 mb -
Precipitation 1.11 in28.2 mm - -
Hour Temp Dew Point Humidity Winds Wind Gusts Pressure Precip Precip Rate Daily Precip Total
12:01 AM 35.8°F2.1°C 36.0°F2.2°C 99% Calm Calm 3.0 mph4.8 kmh 30.09 in1019.0 mb 0.01 in0.3 mm 0.60 in15.2 mm 1.10 in27.9 mm
12:40 AM 36.0°F2.2°C 36.0°F2.2°C 99% 2.0 mph SW3.2 kmh SW 2.0 mph3.2 kmh 30.07 in1018.3 mb 0.01 in0.3 mm 0.00 in0.0 mm 1.10 in27.9 mm
01:01 AM 36.0°F2.2°C 36.0°F2.2°C 99% 2.0 mph W3.2 kmh W 2.0 mph3.2 kmh 30.09 in1019.0 mb 0.00 in0.0 mm 0.00 in0.0 mm 0.01 in0.3 mm
01:39 AM 36.1°F2.3°C 36.0°F2.2°C 99% Calm Calm 2.0 mph3.2 kmh 30.08 in1018.6 mb 0.01 in0.3 mm 0.02 in0.5 mm 1.10 in27.9 mm
02:01 AM 36.1°F2.3°C 36.0°F2.2°C 99% 2.0 mph WNW3.2 kmh WNW 5.0 mph8.0 kmh 30.11 in1019.6 mb 0.02 in0.5 mm 0.02 in0.5 mm 0.02 in0.5 mm
02:31 AM 36.1°F2.3°C 36.0°F2.2°C 99% 1.0 mph NNE1.6 kmh NNE 2.0 mph3.2 kmh 30.11 in1019.6 mb 0.01 in0.3 mm 0.00 in0.0 mm 0.02 in0.5 mm
03:01 AM 36.1°F2.3°C 36.0°F2.2°C 99% Calm Calm 1.0 mph1.6 kmh 30.11 in1019.6 mb 0.02 in0.5 mm 0.02 in0.5 mm 0.04 in1.0 mm
03:20 AM 36.1°F2.3°C 36.0°F2.2°C 99% 1.0 mph SW1.6 kmh SW 2.0 mph3.2 kmh 30.11 in1019.6 mb 0.02 in0.5 mm 0.00 in0.0 mm 0.04 in1.0 mm
03:31 AM 36.0°F2.2°C 36.0°F2.2°C 99% Calm Calm 2.0 mph3.2 kmh 30.11 in1019.6 mb 0.01 in0.3 mm 0.00 in0.0 mm 0.04 in1.0 mm
03:50 AM 36.0°F2.2°C 36.0°F2.2°C 99% 1.0 mph WSW1.6 kmh WSW 1.0 mph1.6 kmh 30.07 in1018.3 mb 0.01 in0.3 mm 0.00 in0.0 mm 0.05 in1.3 mm
04:20 AM 36.0°F2.2°C 36.0°F2.2°C 99% 1.0 mph E1.6 kmh E 1.0 mph1.6 kmh 30.09 in1019.0 mb 0.02 in0.5 mm 0.02 in0.5 mm 1.11 in28.2 mm
04:31 AM 36.0°F2.2°C 36.0°F2.2°C 99% 3.0 mph SSW4.8 kmh SSW 3.0 mph4.8 kmh 30.06 in1017.9 mb 0.02 in0.5 mm 0.00 in0.0 mm 0.06 in1.5 mm
05:10 AM 35.8°F2.1°C 36.0°F2.2°C 99% 1.0 mph WSW1.6 kmh WSW 2.0 mph3.2 kmh 30.07 in1018.3 mb 0.06 in1.5 mm 0.11 in2.8 mm 0.12 in3.0 mm
05:20 AM 35.8°F2.1°C 36.0°F2.2°C 99% 3.0 mph SSW4.8 kmh SSW 3.0 mph4.8 kmh 30.06 in1017.9 mb 0.17 in4.3 mm 0.66 in16.8 mm 0.23 in5.8 mm
06:01 AM 35.8°F2.1°C 36.0°F2.2°C 99% 1.0 mph NW1.6 kmh NW 3.0 mph4.8 kmh 30.04 in1017.3 mb 0.18 in4.6 mm 0.03 in0.8 mm 0.30 in7.6 mm
06:20 AM 35.8°F2.1°C 36.0°F2.2°C 99% 1.0 mph NNW1.6 kmh NNW 1.0 mph1.6 kmh 30.04 in1017.3 mb 0.02 in0.5 mm 0.00 in0.0 mm 0.30 in7.6 mm
06:41 AM 35.8°F2.1°C 36.0°F2.2°C 99% 1.0 mph ESE1.6 kmh ESE 4.0 mph6.4 kmh 30.04 in1017.3 mb 0.09 in2.3 mm 0.20 in5.1 mm 0.38 in9.7 mm
07:10 AM 35.8°F2.1°C 36.0°F2.2°C 99% Calm Calm 2.0 mph3.2 kmh 30.05 in1017.6 mb 0.13 in3.3 mm 0.08 in2.0 mm 0.43 in10.9 mm
07:40 AM 35.6°F2.0°C 35.0°F1.7°C 99% 2.0 mph W3.2 kmh W 3.0 mph4.8 kmh 30.05 in1017.6 mb 0.08 in2.0 mm 0.00 in0.0 mm 0.48 in12.2 mm
08:10 AM 35.8°F2.1°C 36.0°F2.2°C 99% 2.0 mph W3.2 kmh W 2.0 mph3.2 kmh 30.08 in1018.6 mb 0.05 in1.3 mm 0.00 in0.0 mm 0.49 in12.4 mm
08:20 AM 35.8°F2.1°C 36.0°F2.2°C 99% 1.0 mph S1.6 kmh S 4.0 mph6.4 kmh 30.08 in1018.6 mb 0.01 in0.3 mm 0.00 in0.0 mm 0.49 in12.4 mm
08:30 AM 35.8°F2.1°C 36.0°F2.2°C 99% 3.0 mph NNW4.8 kmh NNW 3.0 mph4.8 kmh 30.07 in1018.3 mb 0.01 in0.3 mm 0.00 in0.0 mm 0.99 in25.1 mm
09:10 AM 36.0°F2.2°C 36.0°F2.2°C 99% Calm Calm 1.0 mph1.6 kmh 30.10 in1019.3 mb 0.00 in0.0 mm 0.00 in0.0 mm 0.49 in12.4 mm
09:20 AM 36.0°F2.2°C 36.0°F2.2°C 99% Calm Calm 2.0 mph3.2 kmh 30.07 in1018.3 mb 0.01 in0.3 mm 0.06 in1.5 mm 0.50 in12.7 mm
09:40 AM 36.3°F2.4°C 36.0°F2.2°C 99% 2.0 mph SW3.2 kmh SW 5.0 mph8.0 kmh 30.07 in1018.3 mb 0.01 in0.3 mm 0.00 in0.0 mm 0.50 in12.7 mm
10:20 AM 36.5°F2.5°C 36.0°F2.2°C 99% 1.0 mph SSW1.6 kmh SSW 3.0 mph4.8 kmh 30.12 in1020.0 mb 0.00 in0.0 mm 0.00 in0.0 mm 0.50 in12.7 mm
10:40 AM 36.9°F2.7°C 37.0°F2.8°C 99% 1.0 mph WSW1.6 kmh WSW 2.0 mph3.2 kmh 30.12 in1020.0 mb 0.00 in0.0 mm 0.00 in0.0 mm 0.50 in12.7 mm
10:51 AM 37.0°F2.8°C 37.0°F2.8°C 99% 3.0 mph NW4.8 kmh NW 5.0 mph8.0 kmh 30.12 in1020.0 mb 0.00 in0.0 mm 0.00 in0.0 mm 0.50 in12.7 mm
11:40 AM 38.7°F3.7°C 38.0°F3.3°C 97% 1.0 mph W1.6 kmh W 2.0 mph3.2 kmh 30.10 in1019.3 mb 0.00 in0.0 mm 0.00 in0.0 mm 0.50 in12.7 mm
12:01 PM 40.5°F4.7°C 39.0°F3.9°C 95% 2.0 mph NW3.2 kmh NW 3.0 mph4.8 kmh 30.11 in1019.6 mb 0.00 in0.0 mm 0.00 in0.0 mm 0.50 in12.7 mm
12:30 PM 41.2°F5.1°C 38.0°F3.3°C 90% 3.0 mph W4.8 kmh W 5.0 mph8.0 kmh 30.08 in1018.6 mb 0.00 in0.0 mm 0.00 in0.0 mm 0.50 in12.7 mm
12:50 PM 42.3°F5.7°C 40.0°F4.4°C 90% 2.0 mph WSW3.2 kmh WSW 2.0 mph3.2 kmh 30.08 in1018.6 mb 0.00 in0.0 mm 0.00 in0.0 mm 0.50 in12.7 mm
01:31 PM 43.9°F6.6°C 40.0°F4.4°C 85% Calm Calm 4.0 mph6.4 kmh 30.09 in1019.0 mb 0.00 in0.0 mm 0.00 in0.0 mm 0.50 in12.7 mm
01:40 PM 44.2°F6.8°C 40.0°F4.4°C 85% 3.0 mph S4.8 kmh S 5.0 mph8.0 kmh 30.09 in1019.0 mb 0.00 in0.0 mm 0.00 in0.0 mm 0.50 in12.7 mm
02:10 PM 44.6°F7.0°C 40.0°F4.4°C 83% 2.0 mph WSW3.2 kmh WSW 5.0 mph8.0 kmh 30.01 in1016.3 mb 0.00 in0.0 mm 0.00 in0.0 mm 0.50 in12.7 mm
02:20 PM 44.6°F7.0°C 40.0°F4.4°C 82% 2.0 mph S3.2 kmh S 5.0 mph8.0 kmh 30.06 in1017.9 mb 0.00 in0.0 mm 0.00 in0.0 mm 0.50 in12.7 mm
02:51 PM 46.8°F8.2°C 40.0°F4.4°C 77% 2.0 mph SW3.2 kmh SW 7.0 mph11.3 kmh 30.01 in1016.3 mb 0.00 in0.0 mm 0.00 in0.0 mm 0.50 in12.7 mm
03:01 PM 47.3°F8.5°C 40.0°F4.4°C 76% 2.0 mph ESE3.2 kmh ESE 4.0 mph6.4 kmh 30.03 in1016.9 mb 0.00 in0.0 mm 0.00 in0.0 mm 0.50 in12.7 mm
03:10 PM 47.5°F8.6°C 40.0°F4.4°C 75% 1.0 mph W1.6 kmh W 4.0 mph6.4 kmh 30.03 in1016.9 mb 0.00 in0.0 mm 0.00 in0.0 mm 0.50 in12.7 mm
03:50 PM 47.7°F8.7°C 40.0°F4.4°C 73% 2.0 mph SE3.2 kmh SE 4.0 mph6.4 kmh 30.03 in1016.9 mb 0.00 in0.0 mm 0.00 in0.0 mm 0.50 in12.7 mm
04:01 PM 48.0°F8.9°C 40.0°F4.4°C 73% 4.0 mph SSE6.4 kmh SSE 4.0 mph6.4 kmh 30.03 in1016.9 mb 0.00 in0.0 mm 0.00 in0.0 mm 0.50 in12.7 mm
04:20 PM 48.6°F9.2°C 41.0°F5.0°C 74% Calm Calm 3.0 mph4.8 kmh 30.03 in1016.9 mb 0.00 in0.0 mm 0.00 in0.0 mm 0.50 in12.7 mm
04:40 PM 48.7°F9.3°C 40.0°F4.4°C 73% 1.0 mph NNW1.6 kmh NNW 3.0 mph4.8 kmh 30.03 in1016.9 mb 0.00 in0.0 mm 0.00 in0.0 mm 0.50 in12.7 mm
04:50 PM 49.1°F9.5°C 40.0°F4.4°C 72% Calm Calm 1.0 mph1.6 kmh 30.03 in1016.9 mb 0.00 in0.0 mm 0.00 in0.0 mm 0.50 in12.7 mm
05:28 PM 49.8°F9.9°C 40.0°F4.4°C 69% Calm Calm 2.0 mph3.2 kmh 29.98 in1015.2 mb 0.00 in0.0 mm 0.00 in0.0 mm 0.40 in10.2 mm
05:40 PM 49.5°F9.7°C 39.0°F3.9°C 68% 1.0 mph SW1.6 kmh SW 3.0 mph4.8 kmh 30.00 in1015.9 mb 0.00 in0.0 mm 0.00 in0.0 mm 0.50 in12.7 mm
06:20 PM 47.7°F8.7°C 39.0°F3.9°C 71% Calm Calm 1.0 mph1.6 kmh 30.00 in1015.9 mb 0.00 in0.0 mm 0.00 in0.0 mm 0.50 in12.7 mm
06:30 PM 46.9°F8.3°C 39.0°F3.9°C 74% Calm Calm -- 30.00 in1015.9 mb 0.00 in0.0 mm 0.00 in0.0 mm 0.30 in7.6 mm
06:50 PM 45.0°F7.2°C 39.0°F3.9°C 80% Calm Calm -- 30.00 in1015.9 mb 0.00 in0.0 mm 0.00 in0.0 mm 0.50 in12.7 mm
07:31 PM 41.5°F5.3°C 37.0°F2.8°C 85% Calm Calm -- 30.02 in1016.6 mb 0.00 in0.0 mm 0.00 in0.0 mm 0.50 in12.7 mm
07:40 PM 41.2°F5.1°C 38.0°F3.3°C 87% Calm Calm -- 30.02 in1016.6 mb 0.00 in0.0 mm 0.00 in0.0 mm 0.50 in12.7 mm
07:50 PM 40.3°F4.6°C 37.0°F2.8°C 88% Calm Calm -- 30.02 in1016.6 mb 0.00 in0.0 mm 0.00 in0.0 mm 0.50 in12.7 mm
08:31 PM 38.5°F3.6°C 36.0°F2.2°C 91% Calm Calm -- 30.04 in1017.3 mb 0.00 in0.0 mm 0.00 in0.0 mm 0.50 in12.7 mm
08:50 PM 37.4°F3.0°C 36.0°F2.2°C 93% Calm Calm -- 30.03 in1016.9 mb 0.00 in0.0 mm 0.00 in0.0 mm 0.50 in12.7 mm
09:40 PM 34.9°F1.6°C 33.0°F0.6°C 94% Calm Calm -- 30.06 in1017.9 mb 0.00 in0.0 mm 0.00 in0.0 mm 0.50 in12.7 mm
09:50 PM 34.3°F1.3°C 32.0°F0.0°C 93% Calm Calm -- 30.06 in1017.9 mb 0.00 in0.0 mm 0.00 in0.0 mm 0.50 in12.7 mm
10:01 PM 34.0°F1.1°C 32.0°F0.0°C 94% Calm Calm -- 30.06 in1017.9 mb 0.00 in0.0 mm 0.00 in0.0 mm 0.50 in12.7 mm
10:26 PM 33.8°F1.0°C 32.0°F0.0°C 95% Calm Calm -- 30.06 in1017.9 mb 0.00 in0.0 mm 0.00 in0.0 mm 0.50 in12.7 mm
10:41 PM 33.4°F0.8°C 32.0°F0.0°C 95% Calm Calm -- 30.06 in1017.9 mb 0.00 in0.0 mm 0.00 in0.0 mm 0.50 in12.7 mm
11:01 PM 33.1°F0.6°C 32.0°F0.0°C 95% Calm Calm -- 30.05 in1017.6 mb 0.00 in0.0 mm 0.00 in0.0 mm 0.50 in12.7 mm
11:40 PM 32.5°F0.3°C 32.0°F0.0°C 96% Calm Calm -- 30.05 in1017.6 mb 0.00 in0.0 mm 0.00 in0.0 mm 0.50 in12.7 mm